createdAt,value
2023-01-30T00:08:56.231Z,-0.86
2023-01-30T00:11:25.476Z,-0.86
2023-01-30T00:13:53.440Z,-1.64
2023-01-30T00:16:21.386Z,-1.70
2023-01-30T00:18:49.692Z,-1.74
2023-01-30T00:21:18.161Z,-1.80
2023-01-30T00:23:46.041Z,-1.86
2023-01-30T00:26:16.257Z,-1.95
2023-01-30T00:46:52.188Z,-1.37
2023-01-30T00:49:21.275Z,-1.37
2023-01-30T00:51:49.685Z,-1.96
2023-01-30T00:54:17.622Z,-2.03
2023-01-30T00:56:45.861Z,-2.01
2023-01-30T00:59:13.930Z,-2.03
2023-01-30T01:01:41.942Z,-1.98
2023-01-30T01:04:10.848Z,-2.02
2023-01-30T01:24:30.395Z,-1.15
2023-01-30T01:26:58.933Z,-1.15
2023-01-30T01:29:27.013Z,-1.92
2023-01-30T01:31:55.029Z,-1.93
2023-01-30T01:34:23.659Z,-1.98
2023-01-30T01:36:54.217Z,-2.11
2023-01-30T01:39:23.002Z,-2.08
2023-01-30T02:00:21.073Z,-1.49
2023-01-30T02:03:12.884Z,-1.49
2023-01-30T02:05:48.745Z,-2.26
2023-01-30T02:08:23.598Z,-2.24
2023-01-30T02:11:26.195Z,-2.26
2023-01-30T02:13:54.757Z,-2.30
2023-01-30T02:16:23.254Z,-2.30
2023-01-30T02:33:37.147Z,-1.71
2023-01-30T02:36:17.987Z,-1.71
2023-01-30T02:39:00.551Z,-2.43
2023-01-30T02:41:44.868Z,-2.46
2023-01-30T02:44:24.551Z,-2.45
2023-01-30T02:47:04.158Z,-2.48
2023-01-30T03:07:09.336Z,-1.86
2023-01-30T03:09:45.405Z,-1.86
2023-01-30T03:12:37.066Z,-2.54
2023-01-30T03:15:18.352Z,-2.60
2023-01-30T03:17:48.207Z,-2.62
2023-01-30T03:20:22.271Z,-2.63
2023-01-30T03:22:50.428Z,-2.66
2023-01-30T03:42:57.396Z,-1.97
2023-01-30T03:45:26.082Z,-1.97
2023-01-30T03:47:54.153Z,-2.66
2023-01-30T03:50:22.166Z,-2.68
2023-01-30T03:52:50.447Z,-2.72
2023-01-30T03:55:19.479Z,-2.76
2023-01-30T03:57:47.861Z,-2.92
2023-01-30T04:00:17.791Z,-2.88
2023-01-30T04:17:49.843Z,-2.85
2023-01-30T04:20:20.538Z,-3.12
2023-01-30T04:22:48.822Z,-2.99
2023-01-30T04:25:17.447Z,-2.98
2023-01-30T04:27:45.926Z,-3.02
2023-01-30T04:30:15.178Z,-3.01
2023-01-30T04:32:43.691Z,-3.07
2023-01-30T04:53:21.730Z,-2.70
2023-01-30T04:55:51.098Z,-2.70
2023-01-30T04:58:19.761Z,-3.34
2023-01-30T05:00:48.384Z,-3.33
2023-01-30T05:03:17.478Z,-3.32
2023-01-30T05:05:48.972Z,-3.37
2023-01-30T05:08:17.179Z,-3.34
2023-01-30T05:10:45.166Z,-3.30
2023-01-30T05:13:18.725Z,-3.27
2023-01-30T05:33:56.159Z,-2.56
2023-01-30T05:36:25.132Z,-2.56
2023-01-30T05:38:53.070Z,-3.19
2023-01-30T05:41:21.645Z,-3.22
2023-01-30T05:43:51.121Z,-3.25
2023-01-30T05:46:19.413Z,-3.23
2023-01-30T05:48:47.586Z,-3.20
2023-01-30T05:51:29.031Z,-3.18
2023-01-30T06:21:23.012Z,-2.62
2023-01-30T06:23:51.708Z,-2.62
2023-01-30T06:26:19.622Z,-3.21
2023-01-30T06:28:48.494Z,-3.14
2023-01-30T06:31:18.703Z,-3.09
2023-01-30T06:33:47.282Z,-3.04
2023-01-30T06:36:15.450Z,-2.97
2023-01-30T06:38:43.779Z,-3.00
2023-01-30T06:41:11.677Z,-2.92
2023-01-30T06:43:39.679Z,-2.87
2023-01-30T06:46:07.974Z,-2.80
2023-01-30T06:48:47.504Z,-2.73
2023-01-30T06:51:39.257Z,-2.63
2023-01-30T06:54:07.477Z,-2.53
2023-01-30T06:56:39.161Z,-2.50
2023-01-30T06:59:10.382Z,-2.49
2023-01-30T07:04:20.398Z,-2.24
2023-01-30T07:06:50.258Z,-2.18
2023-01-30T07:09:18.183Z,-1.99
2023-01-30T07:11:47.396Z,-1.65
2023-01-30T07:14:15.657Z,-1.55
2023-01-30T07:16:43.658Z,-1.55
2023-01-30T07:19:11.976Z,-1.87
2023-01-30T07:21:40.306Z,-2.07
2023-01-30T07:24:08.674Z,-1.59
2023-01-30T07:26:37.872Z,-1.38
2023-01-30T07:29:06.151Z,-1.10
2023-01-30T07:31:34.172Z,-1.17
2023-01-30T07:34:02.265Z,-0.59
2023-01-30T07:36:36.702Z,-0.55
2023-01-30T07:39:05.809Z,-0.57
2023-01-30T07:41:34.563Z,-0.38
2023-01-30T07:46:50.730Z,0.02
2023-01-30T07:49:19.622Z,0.21
2023-01-30T07:51:47.666Z,0.05
2023-01-30T07:54:16.505Z,-0.12
2023-01-30T07:56:44.886Z,-0.43
2023-01-30T07:59:12.891Z,-0.18
2023-01-30T08:01:40.969Z,-0.05
2023-01-30T08:04:09.484Z,0.11
2023-01-30T08:06:39.805Z,0.10
2023-01-30T08:09:08.499Z,-0.06
2023-01-30T08:11:36.965Z,0.08
2023-01-30T08:14:16.722Z,0.35
2023-01-30T08:16:45.219Z,0.42
2023-01-30T08:19:18.938Z,0.44
2023-01-30T08:21:50.495Z,0.44
2023-01-30T08:37:41.322Z,1.49
2023-01-30T08:40:11.334Z,1.15
2023-01-30T08:42:39.340Z,0.87
2023-01-30T08:45:07.832Z,0.93
2023-01-30T08:47:36.817Z,0.86
2023-01-30T08:53:37.585Z,0.74
2023-01-30T08:56:38.613Z,0.71
2023-01-30T08:59:08.025Z,1.09
2023-01-30T09:01:38.455Z,1.25
2023-01-30T09:04:07.007Z,1.32
2023-01-30T09:06:34.970Z,1.24
2023-01-30T09:09:03.340Z,1.44
2023-01-30T09:11:34.345Z,1.27
2023-01-30T09:19:46.084Z,1.13
2023-01-30T09:51:16.905Z,2.63
2023-01-30T09:54:16.009Z,2.63
2023-01-30T09:56:44.084Z,1.99
2023-01-30T09:59:30.767Z,1.57
2023-01-30T10:02:18.891Z,1.64
2023-01-30T10:05:00.563Z,2.06
2023-01-30T10:07:49.889Z,1.92
2023-01-30T10:10:35.491Z,2.02
2023-01-30T10:13:12.585Z,2.11
2023-01-30T10:15:59.761Z,2.52
2023-01-30T10:24:22.630Z,2.21
2023-01-30T10:26:52.116Z,2.34
2023-01-30T10:29:30.395Z,2.28
2023-01-30T10:32:17.148Z,2.15
2023-01-30T10:34:51.318Z,2.47
2023-01-30T10:37:29.768Z,2.60
2023-01-30T10:40:29.664Z,1.90
2023-01-30T10:43:15.607Z,2.28
2023-01-30T10:45:46.398Z,2.25
2023-01-30T10:48:21.273Z,2.32
2023-01-30T10:51:00.203Z,2.48
2023-01-30T10:53:43.711Z,2.22
2023-01-30T10:56:33.159Z,2.42
2023-01-30T10:59:22.143Z,2.67
2023-01-30T11:02:15.892Z,3.10
2023-01-30T11:42:43.434Z,3.04
2023-01-30T11:45:18.552Z,3.11
2023-01-30T11:48:04.919Z,3.30
2023-01-30T11:50:49.596Z,3.25
2023-01-30T11:53:32.721Z,2.94
2023-01-30T11:56:10.573Z,3.06
2023-01-30T11:58:41.192Z,2.77
2023-01-30T12:01:11.971Z,2.73
2023-01-30T12:03:56.773Z,2.91
2023-01-30T12:06:36.400Z,2.65
2023-01-30T12:09:05.281Z,2.81
2023-01-30T12:11:36.871Z,2.74
2023-01-30T12:17:24.085Z,2.90
2023-01-30T12:37:39.002Z,3.51
2023-01-30T12:40:25.519Z,3.53
2023-01-30T12:43:37.753Z,3.72
2023-01-30T12:46:54.016Z,3.60
2023-01-30T12:52:52.695Z,3.70
2023-01-30T12:58:59.833Z,3.74
2023-01-30T13:01:43.384Z,3.40
2023-01-30T13:04:30.151Z,3.46
2023-01-30T13:07:33.252Z,3.46
2023-01-30T13:10:12.977Z,3.18
2023-01-30T13:13:04.304Z,3.15
2023-01-30T13:15:41.550Z,3.19
2023-01-30T13:18:25.492Z,3.13
2023-01-30T13:21:30.650Z,3.13
2023-01-30T13:24:25.426Z,3.22
2023-01-30T13:26:55.230Z,3.29
2023-01-30T13:29:33.000Z,3.22
2023-01-30T13:32:05.328Z,3.23
2023-01-30T13:34:44.936Z,3.38
2023-01-30T13:59:03.829Z,3.28
2023-01-30T14:02:02.287Z,3.18
2023-01-30T14:04:30.587Z,2.95
2023-01-30T14:07:36.035Z,2.93
2023-01-30T14:10:10.518Z,2.65
2023-01-30T14:12:41.196Z,3.08
2023-01-30T14:15:12.854Z,3.10
2023-01-30T14:18:07.623Z,3.10
2023-01-30T14:20:41.211Z,2.62
2023-01-30T14:23:30.668Z,2.82
2023-01-30T14:25:59.382Z,2.87
2023-01-30T14:28:37.925Z,2.71
2023-01-30T14:36:47.841Z,2.58
2023-01-30T14:50:19.154Z,2.77
2023-01-30T14:52:50.440Z,2.70
2023-01-30T14:55:23.598Z,2.72
2023-01-30T14:57:58.525Z,2.79
2023-01-30T15:00:32.367Z,2.83
2023-01-30T15:03:05.190Z,2.81
2023-01-30T15:05:37.430Z,2.89
2023-01-30T15:08:17.218Z,2.87
2023-01-30T15:25:04.769Z,3.42
2023-01-30T15:27:59.607Z,3.42
2023-01-30T15:30:49.236Z,2.67
2023-01-30T15:33:29.911Z,2.55
2023-01-30T15:36:00.369Z,2.48
2023-01-30T15:38:34.567Z,2.63
2023-01-30T15:41:19.130Z,2.45
2023-01-30T15:55:37.382Z,3.09
2023-01-30T15:58:12.988Z,3.09
2023-01-30T16:00:46.250Z,2.33
2023-01-30T16:03:31.599Z,2.13
2023-01-30T16:05:59.782Z,2.25
2023-01-30T16:08:36.075Z,2.35
2023-01-30T16:11:04.213Z,2.41
2023-01-30T16:22:07.170Z,2.02
2023-01-30T16:34:48.176Z,2.88
2023-01-30T16:37:16.647Z,2.88
2023-01-30T16:39:48.612Z,2.25
2023-01-30T16:42:27.908Z,2.32
2023-01-30T16:45:11.005Z,2.15
2023-01-30T16:47:40.429Z,2.12
2023-01-30T16:50:26.708Z,1.97
2023-01-30T16:52:55.896Z,1.99
2023-01-30T17:11:36.881Z,1.99
2023-01-30T17:14:14.550Z,1.92
2023-01-30T17:16:43.451Z,2.04
2023-01-30T17:19:12.302Z,1.92
2023-01-30T17:21:48.894Z,2.00
2023-01-30T17:24:19.882Z,2.17
2023-01-30T17:29:43.297Z,1.98
2023-01-30T17:47:57.716Z,2.44
2023-01-30T17:50:28.500Z,2.44
2023-01-30T17:52:56.725Z,1.74
2023-01-30T17:55:25.339Z,1.74
2023-01-30T17:57:54.345Z,1.67
2023-01-30T18:00:23.177Z,1.51
2023-01-30T18:02:52.651Z,1.46
2023-01-30T18:20:45.042Z,2.22
2023-01-30T18:23:14.708Z,2.22
2023-01-30T18:25:42.516Z,1.75
2023-01-30T18:28:11.645Z,1.58
2023-01-30T18:30:40.161Z,1.53
2023-01-30T18:33:08.296Z,1.35
2023-01-30T18:35:38.453Z,1.50
2023-01-30T18:38:20.168Z,1.52
2023-01-30T18:58:32.743Z,1.76
2023-01-30T19:01:09.863Z,1.85
2023-01-30T19:03:38.424Z,1.46
2023-01-30T19:06:10.086Z,1.75
2023-01-30T19:08:39.043Z,1.67
2023-01-30T19:11:31.025Z,1.62
2023-01-30T19:14:08.405Z,1.55
2023-01-30T19:37:06.906Z,1.76
2023-01-30T19:39:35.569Z,1.76
2023-01-30T19:42:03.825Z,1.08
2023-01-30T19:44:32.105Z,1.11
2023-01-30T19:47:00.655Z,1.10
2023-01-30T19:49:29.255Z,1.09
2023-01-30T19:52:02.174Z,1.11
2023-01-30T20:14:41.825Z,3.20
2023-01-30T20:17:11.128Z,3.20
2023-01-30T20:19:39.275Z,2.69
2023-01-30T20:22:08.496Z,2.76
2023-01-30T20:24:36.968Z,2.98
2023-01-30T20:27:05.069Z,2.97
2023-01-30T20:29:33.336Z,3.04
2023-01-30T20:52:42.679Z,3.02
2023-01-30T20:55:11.626Z,2.94
2023-01-30T20:57:43.083Z,2.73
2023-01-30T21:00:12.938Z,2.72
2023-01-30T21:02:42.844Z,2.57
2023-01-30T21:05:11.161Z,2.53
2023-01-30T21:07:39.170Z,2.46
2023-01-30T21:10:16.581Z,2.25
2023-01-30T21:30:42.280Z,2.94
2023-01-30T21:33:11.159Z,2.94
2023-01-30T21:35:39.251Z,2.43
2023-01-30T21:38:26.101Z,2.53
2023-01-30T21:41:14.837Z,2.73
2023-01-30T21:43:42.706Z,2.83
2023-01-30T21:46:25.321Z,3.03
2023-01-30T22:04:04.022Z,3.23
2023-01-30T22:06:33.175Z,3.23
2023-01-30T22:09:02.357Z,2.54
2023-01-30T22:11:31.215Z,2.50
2023-01-30T22:13:59.411Z,2.34
2023-01-30T22:16:29.500Z,2.26
2023-01-30T22:19:00.661Z,2.09
2023-01-30T22:21:32.655Z,1.98
2023-01-30T22:41:52.605Z,2.35
2023-01-30T22:44:21.436Z,2.35
2023-01-30T22:46:52.208Z,1.59
2023-01-30T22:49:20.546Z,1.44
2023-01-30T22:51:49.064Z,1.07
2023-01-30T22:54:17.301Z,1.14
2023-01-30T22:56:48.606Z,1.16
2023-01-30T22:59:25.972Z,1.10
2023-01-30T23:17:33.833Z,1.77
2023-01-30T23:20:02.512Z,1.77
2023-01-30T23:22:30.656Z,1.11
2023-01-30T23:24:58.486Z,1.44
2023-01-30T23:27:27.344Z,1.55
2023-01-30T23:29:55.404Z,1.60
2023-01-30T23:32:24.045Z,1.83
2023-01-30T23:53:23.003Z,2.99
2023-01-30T23:55:53.008Z,2.99
2023-01-30T23:58:21.681Z,2.45
